Time;durP1;ratioP1;P1;durP2;ratioP2;P2;SDS_P1;SDS_P2;PMS_P1;PMS_P2;Temp;Humidity;BMP_temperature;BMP_pressure;BME280_temperature;BME280_humidity;BME280_pressure;Samples;Min_cycle;Max_cycle;Signal;HPM_P1;HPM_P2
2022/11/08 00:02:19;;;;;;;7.70;3.53;;;4.70;99.90;;;;;;5071428;28;20041;-46
2022/11/08 00:04:46;;;;;;;11.82;4.10;;;4.70;99.90;;;;;;5065327;28;20033;-46
2022/11/08 00:15:32;;;;;;;8.48;4.45;;;4.50;99.90;;;;;;5066255;28;20090;-47
2022/11/08 00:17:59;;;;;;;7.97;4.30;;;4.60;99.90;;;;;;5071404;28;20044;-47
2022/11/08 00:20:25;;;;;;;13.60;7.68;;;4.50;99.90;;;;;;5071490;28;20074;-47
2022/11/08 00:22:52;;;;;;;7.72;4.00;;;4.50;99.90;;;;;;5066898;28;20553;-47
2022/11/08 00:25:19;;;;;;;14.18;4.20;;;4.40;99.90;;;;;;5069552;28;20533;-48
2022/11/08 00:27:45;;;;;;;9.93;4.25;;;4.40;99.90;;;;;;5063374;28;20101;-46
2022/11/08 00:30:12;;;;;;;7.03;4.30;;;4.40;99.90;;;;;;5071550;28;20072;-47
2022/11/08 00:32:39;;;;;;;9.50;4.20;;;4.30;99.90;;;;;;5069267;28;20115;-47
2022/11/08 00:35:06;;;;;;;9.40;4.45;;;4.30;99.90;;;;;;5066007;28;20068;-47
2022/11/08 00:37:33;;;;;;;9.40;3.97;;;4.30;99.90;;;;;;5065356;28;20490;-46
2022/11/08 00:39:59;;;;;;;8.30;4.32;;;4.30;99.90;;;;;;5071330;28;20064;-47
2022/11/08 00:42:26;;;;;;;9.55;3.95;;;4.30;99.90;;;;;;5070297;28;20048;-47
2022/11/08 00:44:53;;;;;;;3.90;2.65;;;4.40;99.90;;;;;;5071446;28;20105;-48
2022/11/08 00:47:19;;;;;;;8.23;4.20;;;4.40;99.90;;;;;;5076637;28;20162;-47
2022/11/08 00:49:46;;;;;;;8.90;4.05;;;4.40;99.90;;;;;;5051626;28;20073;-47
2022/11/08 00:52:13;;;;;;;8.05;3.85;;;4.40;99.90;;;;;;5033303;28;20394;-47
2022/11/08 00:54:39;;;;;;;19.48;3.97;;;4.40;99.90;;;;;;5054085;28;20029;-47
2022/11/08 00:57:06;;;;;;;3.70;2.10;;;4.30;99.90;;;;;;5052353;28;20048;-46
2022/11/08 00:59:33;;;;;;;3.85;2.03;;;4.10;99.90;;;;;;5052988;28;20053;-47
2022/11/08 01:01:59;;;;;;;3.33;1.33;;;4.10;99.90;;;;;;5050825;28;20044;-47
2022/11/08 01:04:26;;;;;;;5.00;2.10;;;3.90;99.90;;;;;;5060117;28;20047;-48
2022/11/08 01:06:53;;;;;;;4.65;2.17;;;3.80;99.90;;;;;;5070819;28;20048;-47
2022/11/08 01:09:20;;;;;;;7.15;2.38;;;3.80;99.90;;;;;;5070768;28;20032;-47
2022/11/08 01:11:46;;;;;;;4.50;2.65;;;3.80;99.90;;;;;;5069538;28;20082;-48
2022/11/08 01:14:25;;;;;;;5.15;2.88;;;3.80;99.90;;;;;;5062233;22;20060;-46
2022/11/08 01:16:52;;;;;;;7.57;3.88;;;3.90;99.90;;;;;;5035902;28;20049;-47
2022/11/08 01:19:19;;;;;;;7.05;3.75;;;3.90;99.90;;;;;;5051424;28;20087;-47
2022/11/08 01:21:46;;;;;;;10.82;3.72;;;3.90;99.90;;;;;;5050834;28;20179;-46
2022/11/08 01:24:12;;;;;;;6.85;3.58;;;3.90;99.90;;;;;;5042109;28;20053;-46
2022/11/08 01:26:39;;;;;;;8.57;3.67;;;3.90;99.90;;;;;;5031202;28;20085;-46
2022/11/08 01:29:06;;;;;;;12.45;4.13;;;3.90;99.90;;;;;;5033814;28;20099;-46
2022/11/08 01:31:32;;;;;;;7.10;3.85;;;3.90;99.90;;;;;;5030886;28;20076;-47
2022/11/08 01:33:59;;;;;;;9.70;4.50;;;3.90;99.90;;;;;;5030036;28;20499;-46
2022/11/08 01:36:27;;;;;;;6.78;3.50;;;3.80;99.90;;;;;;5031493;28;20418;-46
2022/11/08 01:38:55;;;;;;;6.13;3.42;;;3.80;99.90;;;;;;5040701;28;20068;-46
2022/11/08 01:41:23;;;;;;;10.07;4.35;;;3.80;99.90;;;;;;5042736;28;20049;-47
2022/11/08 01:43:55;;;;;;;6.13;3.40;;;3.80;99.90;;;;;;5050450;28;20132;-46
2022/11/08 01:46:34;;;;;;;8.32;4.32;;;3.70;99.90;;;;;;5049779;28;20099;-46
2022/11/08 01:49:33;;;;;;;7.40;3.40;;;3.80;99.90;;;;;;5050755;28;20037;-46
2022/11/08 01:52:09;;;;;;;8.35;3.50;;;3.80;99.90;;;;;;5049799;28;20128;-47
2022/11/08 01:54:52;;;;;;;7.88;3.67;;;3.80;99.90;;;;;;5038992;28;20607;-46
2022/11/08 01:57:27;;;;;;;7.78;3.90;;;3.80;99.90;;;;;;5033422;28;20099;-47
2022/11/08 01:59:57;;;;;;;8.70;3.45;;;3.80;99.90;;;;;;5030731;28;20505;-46
2022/11/08 02:02:25;;;;;;;7.30;3.63;;;3.80;99.90;;;;;;5030314;28;20049;-46
2022/11/08 02:04:53;;;;;;;9.68;4.28;;;3.80;99.90;;;;;;5030410;28;20033;-46
2022/11/08 02:07:20;;;;;;;8.35;3.45;;;3.70;99.90;;;;;;5029619;28;20073;-46
2022/11/08 02:09:47;;;;;;;7.63;3.20;;;3.70;99.90;;;;;;5031731;28;20076;-46
2022/11/08 02:12:15;;;;;;;4.65;2.67;;;3.70;99.90;;;;;;5030799;28;20049;-46
2022/11/08 02:14:42;;;;;;;6.28;3.33;;;3.70;99.90;;;;;;5047276;28;20057;-47
2022/11/08 02:17:09;;;;;;;7.00;3.50;;;3.70;99.90;;;;;;5050136;28;20044;-46
2022/11/08 02:19:40;;;;;;;8.95;3.13;;;3.70;99.90;;;;;;5046307;28;20049;-46
2022/11/08 02:22:16;;;;;;;7.43;3.40;;;3.80;99.90;;;;;;5038747;28;20111;-46
2022/11/08 02:24:43;;;;;;;6.53;3.15;;;3.80;99.90;;;;;;5030528;28;20476;-46
2022/11/08 02:27:11;;;;;;;7.32;3.40;;;3.80;99.90;;;;;;5032903;28;20132;-46
2022/11/08 02:29:38;;;;;;;5.97;2.95;;;3.80;99.90;;;;;;5031398;28;20490;-46
2022/11/08 02:32:05;;;;;;;5.45;2.75;;;3.80;99.90;;;;;;5030879;28;20108;-46
2022/11/08 02:34:40;;;;;;;7.80;3.60;;;3.80;99.90;;;;;;5032272;28;20068;-46
2022/11/08 02:37:07;;;;;;;7.40;4.15;;;3.80;99.90;;;;;;5034128;28;20092;-47
2022/11/08 02:39:34;;;;;;;5.97;3.08;;;3.70;99.90;;;;;;5034043;28;20054;-47
2022/11/08 02:42:01;;;;;;;4.57;2.42;;;3.70;99.90;;;;;;5038930;28;20079;-47
2022/11/08 02:44:28;;;;;;;;;;;3.70;99.90;;;;;;5036005;28;20065;-47
2022/11/08 02:46:55;;;;;;;9.45;2.97;;;3.70;99.90;;;;;;5033830;28;19956;-46
2022/11/08 02:49:22;;;;;;;6.25;3.30;;;3.70;99.90;;;;;;5036130;28;20128;-46
2022/11/08 02:51:51;;;;;;;5.15;3.00;;;3.70;99.90;;;;;;5033674;28;20136;-46
2022/11/08 02:54:18;;;;;;;4.55;2.40;;;3.80;99.90;;;;;;5032985;28;20136;-47
2022/11/08 02:56:44;;;;;;;3.88;2.10;;;3.80;99.90;;;;;;5033494;28;20120;-46
2022/11/08 02:59:11;;;;;;;3.40;1.67;;;3.80;99.90;;;;;;5047507;28;20069;-47
2022/11/08 03:01:38;;;;;;;4.40;2.70;;;3.80;99.90;;;;;;5044916;28;20073;-45
2022/11/08 03:04:04;;;;;;;3.28;1.95;;;3.80;99.90;;;;;;5046257;28;20037;-47
2022/11/08 03:06:31;;;;;;;5.72;3.13;;;3.80;99.90;;;;;;5033478;28;20068;-46
2022/11/08 03:08:58;;;;;;;4.60;2.78;;;3.80;99.90;;;;;;5035466;28;20524;-46
2022/11/08 03:11:25;;;;;;;3.60;2.42;;;3.80;99.90;;;;;;5033211;28;20103;-46
2022/11/08 03:13:52;;;;;;;5.35;2.78;;;3.80;99.90;;;;;;5032685;28;20049;-46
2022/11/08 03:16:18;;;;;;;4.55;2.67;;;3.70;99.90;;;;;;5033586;28;20088;-46
2022/11/08 03:18:45;;;;;;;4.20;2.28;;;3.80;99.90;;;;;;5041629;28;20083;-45
2022/11/08 03:21:12;;;;;;;4.65;3.00;;;3.70;99.90;;;;;;5048878;28;20124;-45
2022/11/08 03:23:38;;;;;;;10.55;3.10;;;3.70;99.90;;;;;;5052898;28;20091;-45
2022/11/08 03:26:05;;;;;;;6.47;3.15;;;3.70;99.90;;;;;;5051004;28;20041;-47
2022/11/08 03:28:32;;;;;;;11.60;3.80;;;3.70;99.90;;;;;;5035006;28;20121;-46
2022/11/08 03:30:59;;;;;;;6.57;3.40;;;3.70;99.90;;;;;;5031846;28;20072;-46
2022/11/08 03:33:26;;;;;;;6.53;3.38;;;3.70;99.90;;;;;;5033351;28;20128;-46
2022/11/08 03:35:53;;;;;;;6.15;3.55;;;3.70;99.90;;;;;;5043738;28;20069;-46
2022/11/08 03:38:20;;;;;;;4.45;3.13;;;3.70;99.90;;;;;;5040335;28;20806;-46
2022/11/08 03:40:47;;;;;;;8.95;3.00;;;3.70;99.90;;;;;;5051978;28;20552;-47
2022/11/08 03:43:14;;;;;;;6.47;3.40;;;3.70;99.90;;;;;;5043329;28;20076;-47
2022/11/08 03:45:40;;;;;;;7.45;3.47;;;3.60;99.90;;;;;;5032815;28;20045;-46
2022/11/08 03:48:07;;;;;;;6.53;3.50;;;3.60;99.90;;;;;;5037280;28;20440;-46
2022/11/08 03:50:34;;;;;;;7.80;3.42;;;3.50;99.90;;;;;;5034294;28;20080;-46
2022/11/08 03:53:00;;;;;;;7.80;3.30;;;3.50;99.90;;;;;;5031446;28;20065;-46
2022/11/08 03:55:27;;;;;;;10.57;3.60;;;3.50;99.90;;;;;;5032869;28;20088;-48
2022/11/08 03:57:54;;;;;;;5.70;3.35;;;3.50;99.90;;;;;;5043659;28;20041;-46
2022/11/08 04:00:26;;;;;;;6.97;3.15;;;3.50;99.90;;;;;;5044228;28;20041;-46
2022/11/08 04:02:54;;;;;;;6.63;2.88;;;3.40;99.90;;;;;;5050642;28;20045;-46
2022/11/08 04:05:21;;;;;;;7.07;3.10;;;3.40;99.90;;;;;;5042716;28;20073;-46
2022/11/08 04:07:48;;;;;;;9.35;3.83;;;3.40;99.90;;;;;;5031412;28;20128;-47
2022/11/08 04:10:16;;;;;;;5.38;2.92;;;3.40;99.90;;;;;;5031838;28;20069;-46
2022/11/08 04:15:29;;;;;;;4.75;3.08;;;3.40;99.90;;;;;;5042799;28;20387;-46
2022/11/08 04:23:33;;;;;;;6.65;3.22;;;3.40;99.90;;;;;;5040821;28;20103;-47
2022/11/08 04:26:02;;;;;;;4.90;2.85;;;3.40;99.90;;;;;;5043226;28;20113;-46
2022/11/08 04:28:31;;;;;;;5.88;2.80;;;3.40;99.90;;;;;;5038391;28;20057;-46
2022/11/08 04:31:01;;;;;;;5.25;2.97;;;3.40;99.90;;;;;;5039758;28;20076;-47
2022/11/08 04:33:28;;;;;;;7.55;2.92;;;3.40;99.90;;;;;;5041684;28;20493;-45
2022/11/08 04:36:00;;;;;;;4.95;3.10;;;3.40;99.90;;;;;;5041426;28;20134;-46
2022/11/08 04:38:27;;;;;;;6.88;3.30;;;3.40;99.90;;;;;;5051747;28;20087;-46
2022/11/08 04:40:59;;;;;;;6.65;3.13;;;3.40;99.90;;;;;;5022258;28;20073;-46
2022/11/08 04:43:25;;;;;;;6.55;3.10;;;3.40;99.90;;;;;;5042121;28;20067;-46
2022/11/08 04:45:58;;;;;;;3.75;2.38;;;3.40;99.90;;;;;;5039860;28;20108;-46
2022/11/08 04:48:24;;;;;;;4.72;2.70;;;3.40;99.90;;;;;;5050210;28;20103;-46
2022/11/08 04:50:51;;;;;;;6.32;3.25;;;3.40;99.90;;;;;;5041675;28;20087;-46
2022/11/08 04:53:18;;;;;;;9.32;3.72;;;3.40;99.90;;;;;;5037468;28;20057;-48
2022/11/08 04:55:44;;;;;;;7.13;3.35;;;3.40;99.90;;;;;;5041693;28;20068;-46
2022/11/08 04:58:11;;;;;;;7.38;3.47;;;3.50;99.90;;;;;;5038733;28;20084;-46
2022/11/08 05:00:38;;;;;;;7.13;2.92;;;3.50;99.90;;;;;;5040777;28;20064;-46
2022/11/08 05:03:04;;;;;;;5.50;2.95;;;3.50;99.90;;;;;;5044345;28;20067;-46
2022/11/08 05:05:31;;;;;;;5.78;2.50;;;3.60;99.90;;;;;;5049539;28;20045;-46
2022/11/08 05:07:58;;;;;;;7.13;3.08;;;3.50;99.90;;;;;;5031058;28;20084;-45
2022/11/08 05:10:24;;;;;;;5.30;3.25;;;3.60;99.90;;;;;;5037777;28;20409;-46
2022/11/08 05:12:55;;;;;;;6.45;3.22;;;3.50;99.90;;;;;;5042846;28;20131;-46
2022/11/08 05:15:22;;;;;;;8.35;3.28;;;3.50;99.90;;;;;;5041507;28;20132;-46
2022/11/08 05:17:49;;;;;;;8.18;3.22;;;3.50;99.90;;;;;;5040014;28;20546;-46
2022/11/08 05:25:46;;;;;;;3.88;2.58;;;3.40;99.90;;;;;;5036795;28;20103;-46
2022/11/08 05:28:13;;;;;;;7.07;2.80;;;3.40;99.90;;;;;;5041347;28;20132;-47
2022/11/08 05:30:40;;;;;;;6.20;2.58;;;3.40;99.90;;;;;;5035279;28;20464;-46
2022/11/08 05:33:07;;;;;;;6.05;3.38;;;3.40;99.90;;;;;;5033685;28;20116;-47
2022/11/08 05:35:34;;;;;;;5.95;2.13;;;3.40;99.90;;;;;;5030590;28;20065;-46
2022/11/08 05:38:01;;;;;;;5.10;2.50;;;3.40;99.90;;;;;;5030766;28;20088;-46
2022/11/08 05:40:28;;;;;;;5.32;2.92;;;3.40;99.90;;;;;;5036865;28;20142;-46
2022/11/08 05:42:59;;;;;;;8.23;3.35;;;3.50;99.90;;;;;;5042190;28;20413;-46
2022/11/08 05:45:26;;;;;;;7.57;3.25;;;3.50;99.90;;;;;;5028922;28;20076;-47
2022/11/08 05:47:53;;;;;;;9.55;3.55;;;3.40;99.90;;;;;;5031618;28;20088;-46
2022/11/08 05:50:20;;;;;;;8.68;4.20;;;3.40;99.90;;;;;;5029703;28;20037;-46
2022/11/08 05:52:47;;;;;;;9.95;4.60;;;3.30;99.90;;;;;;5012906;28;20053;-46
2022/11/08 05:55:13;;;;;;;88.70;31.38;;;3.30;99.90;;;;;;5033390;28;20136;-46
2022/11/08 05:57:42;;;;;;;49.13;19.13;;;3.40;99.90;;;;;;5042087;28;20045;-46
2022/11/08 06:00:10;;;;;;;13.13;6.85;;;3.40;99.90;;;;;;5049488;28;20564;-46
2022/11/08 06:02:37;;;;;;;14.45;4.57;;;3.40;99.90;;;;;;5043515;28;20051;-46
2022/11/08 06:05:05;;;;;;;8.48;4.18;;;3.40;99.90;;;;;;5038309;28;20439;-46
2022/11/08 06:07:32;;;;;;;6.47;4.10;;;3.50;99.90;;;;;;5032088;28;20086;-46
2022/11/08 06:09:59;;;;;;;8.80;4.43;;;3.40;99.90;;;;;;5031462;28;20038;-46
2022/11/08 06:12:26;;;;;;;7.50;4.15;;;3.50;99.90;;;;;;5033540;28;20041;-46
2022/11/08 06:14:53;;;;;;;;;;;3.40;99.90;;;;;;5049720;28;20123;-46
2022/11/08 06:17:19;;;;;;;8.57;3.42;;;3.40;99.90;;;;;;5048820;28;19970;-46
2022/11/08 06:19:53;;;;;;;5.10;2.95;;;3.40;99.90;;;;;;5039094;28;20560;-46
2022/11/08 06:22:20;;;;;;;8.85;3.72;;;3.40;99.90;;;;;;5050238;28;20040;-45
2022/11/08 06:24:46;;;;;;;6.93;3.30;;;3.50;99.90;;;;;;5054438;28;20116;-46
2022/11/08 06:27:14;;;;;;;5.15;2.90;;;3.60;99.90;;;;;;5051319;28;20493;-46
2022/11/08 06:29:41;;;;;;;4.15;2.67;;;3.60;99.90;;;;;;5034757;28;20061;-46
2022/11/08 06:32:09;;;;;;;7.53;3.15;;;3.60;99.90;;;;;;5033850;28;20042;-46
2022/11/08 06:34:36;;;;;;;6.68;3.50;;;3.60;99.90;;;;;;5036602;28;20078;-47
2022/11/08 06:37:04;;;;;;;;;;;3.60;99.90;;;;;;5043150;28;20095;-46
2022/11/08 06:39:31;;;;;;;4.20;2.72;;;3.70;99.90;;;;;;5042789;28;19921;-47
2022/11/08 06:41:58;;;;;;;4.90;2.90;;;3.60;99.90;;;;;;5043021;28;20075;-46
2022/11/08 06:44:25;;;;;;;5.72;3.17;;;3.60;99.90;;;;;;5034513;28;20071;-46
2022/11/08 06:46:54;;;;;;;6.15;3.47;;;3.60;99.90;;;;;;5038505;28;20064;-46
2022/11/08 06:49:22;;;;;;;10.25;3.70;;;3.60;99.90;;;;;;5034824;28;20458;-46
2022/11/08 06:51:50;;;;;;;7.65;3.90;;;3.60;99.90;;;;;;5037762;28;20486;-47
2022/11/08 06:54:17;;;;;;;;;;;3.70;99.90;;;;;;5034041;28;20045;-46
2022/11/08 06:56:47;;;;;;;7.07;3.50;;;3.70;99.90;;;;;;5033979;28;19967;-46
2022/11/08 06:59:14;;;;;;;8.80;3.00;;;3.80;99.90;;;;;;5033869;28;20121;-46
2022/11/08 07:01:41;;;;;;;6.72;3.47;;;3.80;99.90;;;;;;5033034;28;20120;-46
2022/11/08 07:04:11;;;;;;;10.40;4.65;;;3.80;99.90;;;;;;5032138;28;20087;-46
2022/11/08 07:06:38;;;;;;;8.20;3.22;;;3.80;99.90;;;;;;5035300;28;20096;-46
2022/11/08 07:09:05;;;;;;;7.75;2.92;;;3.80;99.90;;;;;;5047260;28;20068;-45
2022/11/08 07:11:31;;;;;;;5.07;2.25;;;3.80;99.90;;;;;;5051124;28;20469;-45
2022/11/08 07:13:58;;;;;;;7.50;3.65;;;4.20;99.90;;;;;;5070650;23;20053;-46
2022/11/08 07:16:25;;;;;;;9.63;3.17;;;3.90;99.90;;;;;;5052312;28;20076;-46
2022/11/08 07:18:52;;;;;;;5.55;3.42;;;3.90;99.90;;;;;;5033160;28;20061;-46
2022/11/08 07:21:18;;;;;;;11.02;4.28;;;3.90;99.90;;;;;;5032282;28;20049;-47
2022/11/08 07:23:47;;;;;;;6.80;2.70;;;4.00;99.90;;;;;;5033407;28;20069;-46
2022/11/08 07:26:14;;;;;;;8.90;3.80;;;4.00;99.90;;;;;;5036502;28;20095;-46
2022/11/08 07:28:40;;;;;;;9.57;4.07;;;4.00;99.90;;;;;;5037405;28;20095;-48
2022/11/08 07:31:09;;;;;;;7.53;4.32;;;4.00;99.90;;;;;;5032472;28;20073;-46
2022/11/08 07:33:36;;;;;;;13.75;5.25;;;3.90;99.90;;;;;;5032861;28;20549;-46
2022/11/08 07:36:02;;;;;;;11.57;4.80;;;4.00;99.90;;;;;;5037566;28;20072;-46
2022/11/08 07:38:29;;;;;;;15.13;5.10;;;4.00;99.90;;;;;;5035367;28;20502;-47
2022/11/08 07:41:00;;;;;;;11.90;5.70;;;3.90;99.90;;;;;;5032581;28;20128;-46
2022/11/08 07:43:28;;;;;;;18.80;6.53;;;3.90;99.90;;;;;;5033861;28;20045;-46
2022/11/08 07:46:01;;;;;;;15.82;5.65;;;4.00;99.90;;;;;;5026853;28;20048;-46
2022/11/08 07:48:29;;;;;;;7.65;3.78;;;4.10;99.90;;;;;;5034642;28;20037;-46
2022/11/08 07:50:56;;;;;;;6.18;3.47;;;4.20;99.90;;;;;;5032179;28;20049;-46
2022/11/08 07:53:23;;;;;;;7.25;3.78;;;4.40;99.90;;;;;;5032133;28;20136;-46
2022/11/08 07:55:49;;;;;;;8.48;4.43;;;4.50;99.90;;;;;;5037172;28;20079;-46
2022/11/08 07:58:16;;;;;;;9.23;4.03;;;4.50;99.90;;;;;;5044472;28;20386;-46
2022/11/08 08:00:44;;;;;;;7.80;3.80;;;4.60;99.90;;;;;;5052600;28;20497;-46
2022/11/08 08:03:13;;;;;;;7.30;3.95;;;4.60;99.90;;;;;;5035642;28;20096;-46
2022/11/08 08:05:42;;;;;;;6.80;3.22;;;4.70;99.90;;;;;;5043423;28;20110;-46
2022/11/08 08:08:11;;;;;;;5.47;2.80;;;4.90;99.90;;;;;;5052502;28;20041;-47
2022/11/08 08:10:38;;;;;;;5.18;2.80;;;5.00;99.90;;;;;;5051807;28;20493;-48
2022/11/08 08:13:05;;;;;;;5.63;2.70;;;5.20;99.90;;;;;;5043324;28;20045;-46
2022/11/08 08:15:32;;;;;;;5.63;3.42;;;5.40;99.90;;;;;;5034131;28;20102;-46
2022/11/08 08:18:01;;;;;;;5.10;3.55;;;5.50;99.90;;;;;;5051689;28;20076;-48
2022/11/08 08:20:29;;;;;;;5.63;3.05;;;5.70;99.90;;;;;;5043770;28;20071;-46
2022/11/08 08:22:56;;;;;;;6.28;3.10;;;5.90;99.90;;;;;;5045542;28;20449;-46
2022/11/08 08:25:25;;;;;;;4.75;2.63;;;6.00;99.90;;;;;;5040884;28;20064;-46
2022/11/08 08:27:54;;;;;;;4.93;2.58;;;6.20;99.90;;;;;;5045936;28;20091;-47
2022/11/08 08:30:22;;;;;;;6.63;2.35;;;6.30;99.90;;;;;;5031961;28;20466;-46
2022/11/08 08:32:49;;;;;;;9.77;2.63;;;6.40;99.90;;;;;;5030026;28;20053;-46
2022/11/08 08:35:34;;;;;;;6.53;2.30;;;6.40;99.90;;;;;;5041962;28;20126;-47
2022/11/08 08:38:02;;;;;;;4.85;2.95;;;6.50;99.90;;;;;;5045864;28;20078;-46
2022/11/08 08:40:29;;;;;;;3.88;2.58;;;6.60;99.90;;;;;;5051856;28;20560;-46
2022/11/08 08:43:02;;;;;;;4.20;2.45;;;6.70;99.90;;;;;;5050274;28;20488;-46
2022/11/08 08:45:29;;;;;;;5.75;2.40;;;6.70;99.90;;;;;;5034009;28;20068;-47
2022/11/08 08:47:56;;;;;;;6.78;2.40;;;6.80;99.90;;;;;;5031466;28;20160;-46
2022/11/08 08:50:25;;;;;;;4.07;2.20;;;6.70;99.90;;;;;;5031973;28;20073;-47
2022/11/08 08:52:56;;;;;;;5.90;2.20;;;6.70;99.90;;;;;;5030455;28;20104;-47
2022/11/08 08:55:23;;;;;;;3.95;2.40;;;6.50;99.90;;;;;;5031581;28;20073;-46
2022/11/08 08:57:50;;;;;;;4.75;1.90;;;6.50;99.90;;;;;;5031519;28;20505;-46
2022/11/08 09:00:18;;;;;;;6.47;2.20;;;6.40;99.90;;;;;;5031243;28;20080;-47
2022/11/08 09:03:08;;;;;;;6.28;1.95;;;6.50;99.90;;;;;;5030778;28;20041;-46
2022/11/08 09:05:35;;;;;;;3.22;1.98;;;6.60;99.90;;;;;;5031387;28;20080;-46
2022/11/08 09:08:02;;;;;;;5.63;2.20;;;6.70;99.90;;;;;;5033022;28;20061;-46
2022/11/08 09:10:29;;;;;;;9.93;1.98;;;6.80;99.90;;;;;;5042340;28;20045;-46
2022/11/08 09:12:56;;;;;;;5.57;2.90;;;6.80;99.90;;;;;;5050955;28;20110;-46
2022/11/08 09:15:22;;;;;;;2.63;1.80;;;6.80;99.90;;;;;;5051270;28;20135;-46
2022/11/08 09:17:52;;;;;;;4.80;2.00;;;6.90;99.90;;;;;;5047107;28;20128;-48
2022/11/08 09:20:19;;;;;;;2.90;1.80;;;7.00;99.90;;;;;;5031687;28;20053;-46
2022/11/08 09:22:46;;;;;;;2.85;1.88;;;7.10;99.90;;;;;;5030846;28;20075;-47
2022/11/08 09:25:13;;;;;;;4.03;2.00;;;7.30;99.90;;;;;;5031304;28;20516;-46
2022/11/08 09:27:39;;;;;;;5.05;2.17;;;7.50;99.90;;;;;;5036328;28;20115;-46
2022/11/08 09:30:07;;;;;;;3.53;1.90;;;7.70;99.90;;;;;;5031175;28;20076;-47
2022/11/08 09:32:33;;;;;;;5.25;1.70;;;7.70;99.90;;;;;;5030483;28;20564;-47
2022/11/08 09:35:21;;;;;;;6.45;2.40;;;7.80;99.90;;;;;;5030832;28;20044;-47
2022/11/08 09:37:48;;;;;;;4.82;2.42;;;7.80;99.90;;;;;;5030710;28;20111;-47
2022/11/08 09:40:41;;;;;;;7.32;3.00;;;7.80;99.90;;;;;;5031240;28;20494;-47
2022/11/08 09:43:42;;;;;;;5.22;2.85;;;7.90;99.90;;;;;;5037116;28;20094;-47
2022/11/08 09:46:10;;;;;;;5.57;3.08;;;8.10;99.90;;;;;;5034987;28;20069;-47
2022/11/08 09:48:41;;;;;;;6.68;3.00;;;8.20;99.90;;;;;;5035101;28;20041;-48
2022/11/08 09:51:17;;;;;;;8.45;2.92;;;8.40;99.90;;;;;;5034960;28;20092;-47
2022/11/08 09:54:03;;;;;;;4.93;2.28;;;8.80;99.90;;;;;;5045238;28;20049;-46
2022/11/08 09:56:35;;;;;;;2.63;1.65;;;8.50;99.90;;;;;;5052866;28;20076;-46
2022/11/08 09:59:17;;;;;;;4.78;1.83;;;8.70;99.90;;;;;;5045566;28;20048;-47
2022/11/08 10:01:43;;;;;;;3.03;1.70;;;8.80;99.90;;;;;;5034200;28;20072;-48
2022/11/08 10:04:22;;;;;;;4.60;1.73;;;9.30;99.90;;;;;;5034442;28;20045;-47
2022/11/08 10:07:01;;;;;;;3.97;1.42;;;9.30;99.90;;;;;;5046757;28;20087;-47
2022/11/08 10:09:52;;;;;;;2.40;1.38;;;9.50;99.90;;;;;;5054551;28;20044;-49
2022/11/08 10:12:50;;;;;;;8.10;1.95;;;9.70;99.90;;;;;;5037483;28;20596;-48
2022/11/08 10:15:17;;;;;;;3.30;1.40;;;9.90;99.90;;;;;;5044083;28;20076;-48
2022/11/08 10:18:04;;;;;;;4.03;1.52;;;9.90;99.90;;;;;;5050914;28;20053;-47
2022/11/08 10:21:03;;;;;;;3.45;1.50;;;9.90;99.90;;;;;;5041665;28;20084;-47
2022/11/08 10:23:39;;;;;;;;;;;10.00;99.90;;;;;;5033929;28;20136;-47
2022/11/08 10:26:18;;;;;;;2.20;1.20;;;10.10;99.90;;;;;;5034323;28;19975;-47
2022/11/08 10:28:57;;;;;;;2.97;1.40;;;10.20;99.90;;;;;;5051016;28;20042;-47
2022/11/08 10:31:29;;;;;;;2.03;1.00;;;10.30;99.90;;;;;;5041441;28;20075;-47
2022/11/08 10:33:59;;;;;;;3.97;1.48;;;10.40;99.90;;;;;;5033960;28;20073;-47
2022/11/08 10:37:01;;;;;;;4.53;1.52;;;10.50;99.90;;;;;;5037508;28;20091;-47
2022/11/08 10:39:35;;;;;;;3.50;1.63;;;10.60;99.90;;;;;;5023438;28;20460;-49
2022/11/08 10:42:15;;;;;;;3.97;1.50;;;10.90;99.90;;;;;;5033666;28;20084;-47
2022/11/08 10:44:42;;;;;;;1.63;1.10;;;11.10;99.90;;;;;;5038197;28;20056;-47
2022/11/08 10:47:25;;;;;;;7.72;1.45;;;11.30;99.90;;;;;;5036846;28;20073;-48
2022/11/08 10:49:53;;;;;;;3.00;1.58;;;11.50;99.90;;;;;;5033864;28;20107;-47
2022/11/08 10:52:38;;;;;;;4.15;1.10;;;11.60;99.90;;;;;;5038118;28;20141;-47
2022/11/08 10:55:07;;;;;;;2.50;1.58;;;11.80;99.90;;;;;;5033499;28;20099;-47
2022/11/08 10:57:37;;;;;;;6.10;1.30;;;12.00;99.90;;;;;;5033166;28;20073;-47
2022/11/08 11:00:33;;;;;;;4.70;1.33;;;12.20;99.90;;;;;;5036912;28;20120;-47
2022/11/08 11:03:04;;;;;;;3.70;1.33;;;12.50;99.90;;;;;;5028794;28;20088;-47
2022/11/08 11:05:33;;;;;;;1.20;1.00;;;12.50;99.90;;;;;;5033830;28;20119;-47
2022/11/08 11:08:08;;;;;;;1.17;0.98;;;12.40;99.90;;;;;;5037214;28;20076;-47
2022/11/08 11:10:38;;;;;;;3.92;1.23;;;12.50;99.90;;;;;;5033960;28;20042;-47
2022/11/08 11:13:25;;;;;;;1.55;1.10;;;12.40;99.90;;;;;;5032965;28;20071;-47
2022/11/08 11:16:02;;;;;;;2.35;1.00;;;12.40;99.90;;;;;;5046235;28;20386;-47
2022/11/08 11:18:49;;;;;;;1.67;0.90;;;12.40;99.90;;;;;;5045213;28;20065;-47
2022/11/08 11:21:18;;;;;;;2.22;1.05;;;12.50;99.90;;;;;;5053589;28;20041;-47
2022/11/08 11:23:46;;;;;;;1.25;0.75;;;12.60;99.90;;;;;;5031472;28;20060;-48
2022/11/08 11:26:28;;;;;;;1.90;1.00;;;12.80;99.90;;;;;;5044716;28;20117;-48
2022/11/08 11:29:04;;;;;;;2.67;1.05;;;12.70;99.90;;;;;;5033166;28;20101;-49
2022/11/08 11:31:36;;;;;;;1.63;1.02;;;12.70;99.90;;;;;;5035904;28;20049;-47
2022/11/08 11:34:18;;;;;;;2.15;1.02;;;12.70;99.90;;;;;;5032990;28;20053;-51
2022/11/08 11:37:03;;;;;;;3.47;1.10;;;12.60;99.90;;;;;;5033371;28;20506;-46
2022/11/08 11:39:50;;;;;;;2.25;1.10;;;12.70;99.90;;;;;;5042436;28;20048;-47
2022/11/08 11:42:36;;;;;;;2.90;1.27;;;11.90;99.90;;;;;;5032441;28;20081;-47
2022/11/08 11:45:27;;;;;;;2.63;1.33;;;12.70;99.90;;;;;;5032838;28;20037;-46
2022/11/08 11:48:10;;;;;;;2.70;1.02;;;12.70;99.90;;;;;;5033430;28;20045;-47
2022/11/08 11:50:38;;;;;;;1.88;0.80;;;12.70;99.90;;;;;;5044074;28;20418;-47
2022/11/08 11:53:14;;;;;;;2.25;1.00;;;12.90;99.90;;;;;;5052387;28;20049;-48
2022/11/08 11:56:10;;;;;;;2.83;0.95;;;13.00;99.90;;;;;;5040232;28;20058;-47
2022/11/08 11:59:16;;;;;;;2.05;1.10;;;13.00;99.90;;;;;;5027393;28;20087;-47
2022/11/08 12:01:58;;;;;;;2.60;1.00;;;13.00;99.90;;;;;;5031977;28;20080;-47
2022/11/08 12:04:50;;;;;;;2.00;1.20;;;12.90;99.90;;;;;;5037471;28;20049;-47
2022/11/08 12:07:23;;;;;;;2.60;1.05;;;13.00;99.90;;;;;;5032066;28;20116;-47
2022/11/08 12:10:09;;;;;;;3.20;1.17;;;13.10;99.90;;;;;;5032536;28;20051;-47
2022/11/08 12:12:54;;;;;;;4.20;1.20;;;13.00;99.90;;;;;;5032138;28;20457;-47
2022/11/08 12:15:30;;;;;;;2.17;1.02;;;13.10;99.90;;;;;;5035247;28;20045;-46
2022/11/08 12:18:16;;;;;;;4.82;0.90;;;13.10;99.90;;;;;;5032245;28;20045;-47
2022/11/08 12:21:14;;;;;;;1.25;0.80;;;13.20;99.90;;;;;;5032115;28;20057;-48
2022/11/08 12:23:55;;;;;;;3.50;0.65;;;13.30;99.90;;;;;;5031461;28;20056;-47
2022/11/08 12:26:51;;;;;;;1.77;0.80;;;13.40;99.90;;;;;;5032220;28;20556;-48
2022/11/08 12:29:52;;;;;;;1.33;0.60;;;13.40;99.90;;;;;;5031749;28;20120;-46
2022/11/08 12:32:42;;;;;;;1.92;1.00;;;13.50;99.90;;;;;;5031355;28;20107;-47
2022/11/08 12:35:37;;;;;;;1.60;1.00;;;13.50;99.90;;;;;;5031615;28;20079;-47
2022/11/08 12:38:21;;;;;;;1.10;0.68;;;13.50;99.90;;;;;;5031926;28;20069;-48
2022/11/08 12:40:58;;;;;;;5.88;1.50;;;13.60;99.90;;;;;;5034350;28;20061;-47
2022/11/08 12:43:41;;;;;;;2.47;1.00;;;13.60;99.90;;;;;;5031204;28;20393;-49
2022/11/08 12:46:11;;;;;;;6.45;0.93;;;13.60;99.90;;;;;;5031892;28;20053;-48
2022/11/08 12:49:09;;;;;;;4.28;1.17;;;13.70;99.90;;;;;;5040434;28;20087;-47
2022/11/08 12:51:49;;;;;;;2.90;0.98;;;13.70;99.90;;;;;;5050042;28;20451;-47
2022/11/08 12:54:21;;;;;;;2.20;0.90;;;13.80;99.90;;;;;;5031200;28;20262;-47
2022/11/08 12:56:51;;;;;;;2.70;0.90;;;13.80;99.90;;;;;;5039293;28;20076;-48
2022/11/08 12:59:46;;;;;;;1.90;0.90;;;13.80;99.90;;;;;;5031252;28;20555;-47
2022/11/08 13:02:20;;;;;;;1.00;0.65;;;13.80;99.90;;;;;;5030870;28;20134;-47
2022/11/08 13:04:59;;;;;;;1.80;1.00;;;13.80;99.90;;;;;;5031488;28;20072;-49
2022/11/08 13:07:54;;;;;;;2.60;1.15;;;13.80;99.90;;;;;;5045452;28;20127;-50
2022/11/08 13:10:36;;;;;;;2.67;1.20;;;13.80;99.90;;;;;;5030063;28;20075;-47
2022/11/08 13:16:13;;;;;;;1.77;1.20;;;13.90;99.90;;;;;;5033183;28;20730;-49
2022/11/08 13:18:47;;;;;;;1.60;0.98;;;13.90;99.90;;;;;;5030142;28;20072;-47
2022/11/08 13:21:26;;;;;;;4.38;2.00;;;13.90;99.90;;;;;;5031574;28;20434;-47
2022/11/08 13:23:59;;;;;;;3.70;1.60;;;13.90;99.90;;;;;;5036587;28;20079;-48
2022/11/08 13:26:42;;;;;;;3.72;1.23;;;13.90;99.90;;;;;;5050611;28;20450;-47
2022/11/08 13:29:12;;;;;;;5.43;1.10;;;13.80;99.90;;;;;;5049780;28;20414;-50
2022/11/08 13:31:46;;;;;;;3.17;1.15;;;13.70;99.90;;;;;;5050516;28;20088;-47
2022/11/08 13:34:45;;;;;;;3.45;1.50;;;13.70;99.90;;;;;;5050450;28;20044;-48
2022/11/08 13:37:36;;;;;;;3.60;1.10;;;13.80;99.90;;;;;;5059716;28;20523;-47
2022/11/08 13:40:22;;;;;;;1.40;0.68;;;13.80;99.90;;;;;;5051256;28;20080;-48
2022/11/08 13:42:48;;;;;;;5.82;1.50;;;13.90;99.90;;;;;;5050604;28;20129;-47
2022/11/08 13:45:15;;;;;;;3.42;1.10;;;13.90;99.90;;;;;;5050777;28;20068;-48